Time;durP1;ratioP1;P1;durP2;ratioP2;P2;SDS_P1;SDS_P2;PMS_P1;PMS_P2;Temp;Humidity;BMP_temperature;BMP_pressure;BME280_temperature;BME280_humidity;BME280_pressure;Samples;Min_cycle;Max_cycle;Signal;HPM_P1;HPM_P2
2022/10/30 00:00:48;;;;;;;;;;;11.80;99.90;;;;;;5052361;28;20292;-76
2022/10/30 00:03:14;;;;;;;;;;;11.70;99.90;;;;;;5052305;28;19983;-76
2022/10/30 00:05:41;;;;;;;;;;;11.70;99.90;;;;;;5052639;28;19908;-77
2022/10/30 00:08:08;;;;;;;;;;;11.70;99.90;;;;;;5070562;28;19951;-76
2022/10/30 00:10:33;;;;;;;;;;;11.70;99.90;;;;;;5052960;28;19908;-76
2022/10/30 00:12:59;;;;;;;;;;;11.70;99.90;;;;;;5052428;28;20030;-76
2022/10/30 00:15:25;;;;;;;;;;;11.70;99.90;;;;;;5070388;28;19916;-76
2022/10/30 00:17:50;;;;;;;;;;;11.70;99.90;;;;;;5052483;28;19914;-76
2022/10/30 00:20:16;;;;;;;;;;;11.70;99.90;;;;;;5070019;28;19969;-76
2022/10/30 00:22:41;;;;;;;;;;;11.70;99.90;;;;;;5070249;28;19940;-76
2022/10/30 00:25:07;;;;;;;;;;;11.60;99.90;;;;;;5070311;28;20391;-75
2022/10/30 00:27:32;;;;;;;;;;;11.60;99.90;;;;;;5056133;28;19962;-76
2022/10/30 00:29:58;;;;;;;;;;;11.60;99.90;;;;;;5055794;28;19912;-76
2022/10/30 00:32:23;;;;;;;;;;;11.60;99.90;;;;;;5055970;28;19908;-75
2022/10/30 00:34:49;;;;;;;;;;;11.60;99.90;;;;;;5055783;28;19909;-75
2022/10/30 00:37:15;;;;;;;;;;;11.50;99.90;;;;;;5074059;28;19998;-76
2022/10/30 00:39:40;;;;;;;;;;;11.60;99.90;;;;;;5074425;28;19959;-76
2022/10/30 00:42:09;;;;;;;;;;;11.50;99.90;;;;;;5056132;28;19912;-76
2022/10/30 00:44:37;;;;;;;;;;;11.50;99.90;;;;;;5056019;28;19915;-77
2022/10/30 00:47:10;;;;;;;;;;;11.60;99.90;;;;;;5073832;28;19911;-75
2022/10/30 00:49:37;;;;;;;;;;;11.50;99.90;;;;;;5073975;28;19955;-76
2022/10/30 00:52:07;;;;;;;;;;;11.60;99.90;;;;;;5055767;28;19971;-76
2022/10/30 00:54:33;;;;;;;;;;;11.50;99.90;;;;;;5055984;28;19904;-75
2022/10/30 00:57:00;;;;;;;;;;;11.60;99.90;;;;;;5073061;28;20296;-76
2022/10/30 00:59:28;;;;;;;;;;;11.50;99.90;;;;;;5073081;28;20447;-76
2022/10/30 01:01:54;;;;;;;;;;;11.50;99.90;;;;;;5071444;28;19919;-76
2022/10/30 01:04:20;;;;;;;;;;;11.60;99.90;;;;;;5053947;28;19909;-76
2022/10/30 01:06:47;;;;;;;;;;;11.50;99.90;;;;;;5072152;28;19908;-76
2022/10/30 01:09:13;;;;;;;;;;;11.50;99.90;;;;;;5072207;28;19915;-76
2022/10/30 01:11:39;;;;;;;;;;;11.60;99.90;;;;;;5054108;28;19927;-76
2022/10/30 01:14:06;;;;;;;;;;;11.50;99.90;;;;;;5072063;28;19924;-76
2022/10/30 01:16:38;;;;;;;;;;;11.50;99.90;;;;;;5071838;28;19936;-76
2022/10/30 01:19:09;;;;;;;;;;;11.50;99.90;;;;;;5052937;28;19919;-75
2022/10/30 01:21:39;;;;;;;;;;;11.50;99.90;;;;;;5054612;28;19916;-76
2022/10/30 01:24:07;;;;;;;;;;;11.50;99.90;;;;;;5054353;28;19912;-76
2022/10/30 01:26:36;;;;;;;;;;;11.50;99.90;;;;;;5054407;28;19915;-76
2022/10/30 01:29:02;;;;;;;;;;;11.50;99.90;;;;;;5072540;28;19905;-76
2022/10/30 01:31:33;;;;;;;;;;;11.50;99.90;;;;;;5054144;28;20345;-76
2022/10/30 01:34:14;;;;;;;;;;;11.50;99.90;;;;;;5054017;28;19950;-76
2022/10/30 01:36:44;;;;;;;;;;;11.50;99.90;;;;;;5053501;28;19950;-76
2022/10/30 01:39:15;;;;;;;;;;;11.50;99.90;;;;;;5071824;28;19958;-76
2022/10/30 01:41:40;;;;;;;;;;;11.50;99.90;;;;;;5053994;28;19916;-76
2022/10/30 01:44:12;;;;;;;;;;;11.50;99.90;;;;;;5054100;28;19909;-76
2022/10/30 01:46:41;;;;;;;;;;;11.50;99.90;;;;;;5072041;28;19916;-76
2022/10/30 01:49:13;;;;;;;;;;;11.50;99.90;;;;;;5070416;28;19908;-76
2022/10/30 01:51:53;;;;;;;;;;;11.50;99.90;;;;;;5053998;28;19987;-76
2022/10/30 01:54:31;;;;;;;;;;;11.50;99.90;;;;;;5053454;28;19930;-76
2022/10/30 01:56:59;;;;;;;;;;;11.40;99.90;;;;;;5053579;28;20294;-76
2022/10/30 01:59:29;;;;;;;;;;;11.50;99.90;;;;;;5053086;28;19919;-76
2022/10/30 02:01:55;;;;;;;;;;;11.50;99.90;;;;;;5053243;28;20300;-76
2022/10/30 02:04:20;;;;;;;;;;;11.50;99.90;;;;;;5053652;28;19908;-76
2022/10/30 02:06:46;;;;;;;;;;;11.50;99.90;;;;;;5052415;28;19904;-75
2022/10/30 02:09:13;;;;;;;;;;;11.50;99.90;;;;;;5053249;28;19931;-75
2022/10/30 02:11:39;;;;;;;;;;;11.50;99.90;;;;;;5071590;28;19904;-76
2022/10/30 02:14:05;;;;;;;;;;;11.50;99.90;;;;;;5053288;28;20323;-76
2022/10/30 02:16:36;;;;;;;;;;;11.50;99.90;;;;;;5071078;28;19904;-76
2022/10/30 02:19:02;;;;;;;;;;;11.50;99.90;;;;;;5070580;28;19969;-75
2022/10/30 02:21:27;;;;;;;;;;;11.50;99.90;;;;;;5052290;28;20335;-76
2022/10/30 02:23:53;;;;;;;;;;;11.50;99.90;;;;;;5053979;28;19995;-76
2022/10/30 02:26:18;;;;;;;;;;;11.50;99.90;;;;;;5071689;28;20369;-76
2022/10/30 02:28:44;;;;;;;;;;;11.50;99.90;;;;;;5051481;28;19966;-76
2022/10/30 02:31:09;;;;;;;;;;;11.50;99.90;;;;;;5033728;28;19916;-75
2022/10/30 02:33:35;;;;;;;;;;;11.50;99.90;;;;;;5050260;28;20325;-75
2022/10/30 02:36:00;;;;;;;;;;;11.50;99.90;;;;;;5050700;28;20427;-76
2022/10/30 02:38:26;;;;;;;;;;;11.50;99.90;;;;;;5050998;28;19916;-76
2022/10/30 02:40:51;;;;;;;;;;;11.50;99.90;;;;;;5049830;28;19916;-75
2022/10/30 02:43:17;;;;;;;;;;;11.50;99.90;;;;;;5049839;28;19909;-76
2022/10/30 02:45:42;;;;;;;;;;;11.40;99.90;;;;;;5049540;28;20234;-75
2022/10/30 02:48:08;;;;;;;;;;;11.50;99.90;;;;;;5049041;28;20372;-76
2022/10/30 02:50:33;;;;;;;;;;;11.50;99.90;;;;;;5049125;28;19904;-76
2022/10/30 02:52:59;;;;;;;;;;;11.50;99.90;;;;;;5049354;28;20038;-76
2022/10/30 02:55:24;;;;;;;;;;;11.40;99.90;;;;;;5049897;28;20470;-76
2022/10/30 02:57:50;;;;;;;;;;;11.40;99.90;;;;;;5050728;28;20281;-76
2022/10/30 03:00:15;;;;;;;;;;;11.40;99.90;;;;;;5049018;28;19909;-76
2022/10/30 03:02:41;;;;;;;;;;;11.40;99.90;;;;;;5050371;28;19909;-75
2022/10/30 03:05:07;;;;;;;;;;;11.30;99.90;;;;;;5052274;28;19908;-76
2022/10/30 03:07:32;;;;;;;;;;;11.40;99.90;;;;;;5053053;28;19912;-76
2022/10/30 03:09:58;;;;;;;;;;;11.40;99.90;;;;;;5053466;28;19952;-76
2022/10/30 03:12:23;;;;;;;;;;;11.40;99.90;;;;;;5071028;28;19919;-76
2022/10/30 03:14:49;;;;;;;;;;;11.40;99.90;;;;;;5052610;28;20402;-76
2022/10/30 03:17:14;;;;;;;;;;;11.30;99.90;;;;;;5053535;28;20548;-76
2022/10/30 03:19:40;;;;;;;;;;;11.30;99.90;;;;;;5051047;28;19959;-76
2022/10/30 03:22:05;;;;;;;;;;;11.30;99.90;;;;;;5069158;28;20312;-76
2022/10/30 03:24:31;;;;;;;;;;;11.30;99.90;;;;;;5070000;28;19908;-76
2022/10/30 03:26:56;;;;;;;;;;;11.30;99.90;;;;;;5051901;28;20268;-76
2022/10/30 03:29:22;;;;;;;;;;;11.40;99.90;;;;;;5051823;28;19911;-77
2022/10/30 03:31:47;;;;;;;;;;;11.30;99.90;;;;;;5051806;28;19977;-76
2022/10/30 03:34:13;;;;;;;;;;;11.30;99.90;;;;;;5051700;28;20327;-77
2022/10/30 03:36:38;;;;;;;;;;;11.30;99.90;;;;;;5051330;28;19909;-76
2022/10/30 03:39:04;;;;;;;;;;;11.30;99.90;;;;;;5069708;28;19912;-76
2022/10/30 03:41:29;;;;;;;;;;;11.30;99.90;;;;;;5051263;28;20007;-76
2022/10/30 03:43:55;;;;;;;;;;;11.30;99.90;;;;;;5051706;28;20253;-76
2022/10/30 03:46:20;;;;;;;;;;;11.30;99.90;;;;;;5051230;28;19909;-76
2022/10/30 03:48:49;;;;;;;;;;;11.30;99.90;;;;;;5050896;28;19916;-76
2022/10/30 03:51:15;;;;;;;;;;;11.30;99.90;;;;;;5069536;28;19966;-76
2022/10/30 03:53:40;;;;;;;;;;;11.30;99.90;;;;;;5069804;28;19909;-76
2022/10/30 03:56:06;;;;;;;;;;;11.20;99.90;;;;;;5051772;28;19999;-76
2022/10/30 03:58:31;;;;;;;;;;;11.30;99.90;;;;;;5051030;28;19931;-77
2022/10/30 04:01:01;;;;;;;;;;;11.30;99.90;;;;;;5054440;28;20292;-76
2022/10/30 04:03:27;;;;;;;;;;;11.30;99.90;;;;;;5073120;28;19904;-76
2022/10/30 04:05:52;;;;;;;;;;;11.30;99.90;;;;;;5055263;28;20391;-76
2022/10/30 04:08:18;;;;;;;;;;;11.30;99.90;;;;;;5073151;28;19911;-76
2022/10/30 04:10:44;;;;;;;;;;;11.30;99.90;;;;;;5055182;28;19909;-76
2022/10/30 04:13:10;;;;;;;;;;;11.30;99.90;;;;;;5051919;28;19924;-76
2022/10/30 04:15:36;;;;;;;;;;;11.30;99.90;;;;;;5053533;28;19905;-76
2022/10/30 04:18:02;;;;;;;;;;;11.30;99.90;;;;;;5052328;28;20682;-76
2022/10/30 04:20:28;;;;;;;;;;;11.30;99.90;;;;;;5053537;28;19935;-76
2022/10/30 04:23:01;;;;;;;;;;;11.40;99.90;;;;;;5053578;28;19911;-76
2022/10/30 04:25:27;;;;;;;;;;;11.40;99.90;;;;;;5053462;28;20293;-76
2022/10/30 04:27:53;;;;;;;;;;;11.40;99.90;;;;;;5053603;28;19915;-77
2022/10/30 04:30:23;;;;;;;;;;;11.50;99.90;;;;;;5053435;28;19909;-76
2022/10/30 04:32:55;;;;;;;;;;;11.50;99.90;;;;;;5052429;28;20296;-76
2022/10/30 04:35:25;;;;;;;;;;;11.40;99.90;;;;;;5053550;28;19904;-76
2022/10/30 04:37:52;;;;;;;;;;;11.50;99.90;;;;;;5052776;28;20381;-76
2022/10/30 04:40:18;;;;;;;;;;;11.50;99.90;;;;;;5051891;28;19912;-77
2022/10/30 04:42:45;;;;;;;;;;;11.50;99.90;;;;;;5052548;28;19911;-76
2022/10/30 04:45:11;;;;;;;;;;;11.50;99.90;;;;;;5052244;28;19954;-76
2022/10/30 04:47:36;;;;;;;;;;;11.50;99.90;;;;;;5054275;28;19905;-76
2022/10/30 04:50:02;;;;;;;;;;;11.50;99.90;;;;;;5053890;28;20355;-76
2022/10/30 04:52:28;;;;;;;;;;;11.40;99.90;;;;;;5052376;28;19905;-76
2022/10/30 04:54:53;;;;;;;;;;;11.50;99.90;;;;;;5052202;28;19908;-76
2022/10/30 04:57:19;;;;;;;;;;;11.40;99.90;;;;;;5051799;28;19959;-76
2022/10/30 04:59:44;;;;;;;;;;;11.50;99.90;;;;;;5051769;28;19962;-77
2022/10/30 05:02:09;;;;;;;;;;;11.40;99.90;;;;;;5052348;28;19916;-76
2022/10/30 05:04:35;;;;;;;;;;;11.40;99.90;;;;;;5051942;28;20316;-76
2022/10/30 05:07:02;;;;;;;;;;;11.50;99.90;;;;;;5052470;28;19912;-76
2022/10/30 05:09:28;;;;;;;;;;;11.50;99.90;;;;;;5053689;28;19915;-76
2022/10/30 05:11:53;;;;;;;;;;;11.40;99.90;;;;;;5053682;28;20297;-76
2022/10/30 05:14:19;;;;;;;;;;;11.40;99.90;;;;;;5073293;28;19971;-76
2022/10/30 05:16:44;;;;;;;;;;;11.50;99.90;;;;;;5056037;28;20354;-76
2022/10/30 05:19:10;;;;;;;;;;;11.50;99.90;;;;;;5055338;28;20364;-76
2022/10/30 05:21:35;;;;;;;;;;;11.50;99.90;;;;;;5055602;28;19923;-76
2022/10/30 05:24:01;;;;;;;;;;;11.50;99.90;;;;;;5055752;28;19930;-76
2022/10/30 05:26:26;;;;;;;;;;;11.50;99.90;;;;;;5056203;28;19955;-77
2022/10/30 05:28:52;;;;;;;;;;;11.40;99.90;;;;;;5073385;28;20018;-76
2022/10/30 05:31:17;;;;;;;;;;;11.50;99.90;;;;;;5074206;28;19912;-76
2022/10/30 05:33:43;;;;;;;;;;;11.50;99.90;;;;;;5056263;28;19968;-76
2022/10/30 05:36:08;;;;;;;;;;;11.40;99.90;;;;;;5054931;28;19922;-76
2022/10/30 05:38:34;;;;;;;;;;;11.40;99.90;;;;;;5071892;28;19904;-75
2022/10/30 05:40:59;;;;;;;;;;;11.40;99.90;;;;;;5053483;28;19916;-76
2022/10/30 05:43:25;;;;;;;;;;;11.40;99.90;;;;;;5053767;28;19908;-76
2022/10/30 05:45:50;;;;;;;;;;;11.40;99.90;;;;;;5053542;28;19904;-76
2022/10/30 05:48:16;;;;;;;;;;;11.40;99.90;;;;;;5053756;28;20323;-76
2022/10/30 05:50:41;;;;;;;;;;;11.40;99.90;;;;;;5071778;28;19915;-76
2022/10/30 05:53:08;;;;;;;;;;;11.40;99.90;;;;;;5053480;28;20003;-76
2022/10/30 05:55:33;;;;;;;;;;;11.40;99.90;;;;;;5053487;28;20019;-76
2022/10/30 05:58:00;;;;;;;;;;;11.40;99.90;;;;;;5053897;28;20424;-76
2022/10/30 06:00:27;;;;;;;;;;;11.40;99.90;;;;;;5053479;28;19919;-76
2022/10/30 06:03:20;;;;;;;;;;;11.40;99.90;;;;;;5071255;28;20294;-76
2022/10/30 06:05:46;;;;;;;;;;;11.40;99.90;;;;;;5066340;28;20392;-76
2022/10/30 06:08:11;;;;;;;;;;;11.40;99.90;;;;;;5053661;28;19940;-76
2022/10/30 06:10:37;;;;;;;;;;;11.50;99.90;;;;;;5053622;28;20331;-76
2022/10/30 06:13:04;;;;;;;;;;;11.50;99.90;;;;;;5071385;28;20412;-76
2022/10/30 06:15:29;;;;;;;;;;;11.50;99.90;;;;;;5053591;28;19912;-76
2022/10/30 06:17:55;;;;;;;;;;;11.50;99.90;;;;;;5053633;28;19913;-76
2022/10/30 06:20:22;;;;;;;;;;;11.50;99.90;;;;;;5071360;28;20008;-76
2022/10/30 06:23:01;;;;;;;;;;;11.60;99.90;;;;;;5052235;28;19905;-76
2022/10/30 06:25:27;;;;;;;;;;;11.60;99.90;;;;;;5053818;28;20011;-77
2022/10/30 06:27:53;;;;;;;;;;;11.60;99.90;;;;;;5053362;28;19908;-76
2022/10/30 06:30:19;;;;;;;;;;;11.60;99.90;;;;;;5053486;28;19910;-76
2022/10/30 06:32:44;;;;;;;;;;;11.60;99.90;;;;;;5071571;28;19905;-76
2022/10/30 06:35:10;;;;;;;;;;;11.60;99.90;;;;;;5053557;28;19912;-76
2022/10/30 06:37:38;;;;;;;;;;;11.60;99.90;;;;;;5053653;28;19974;-75
2022/10/30 06:40:05;;;;;;;;;;;11.70;99.90;;;;;;5071175;28;20296;-76
2022/10/30 06:42:31;;;;;;;;;;;11.70;99.90;;;;;;5053515;28;19905;-75
2022/10/30 06:44:56;;;;;;;;;;;11.70;99.90;;;;;;5053702;28;20284;-76
2022/10/30 06:47:22;;;;;;;;;;;11.80;99.90;;;;;;5071426;28;19905;-76
2022/10/30 06:49:47;;;;;;;;;;;11.80;99.90;;;;;;5053337;28;20001;-76
2022/10/30 06:52:12;;;;;;;;;;;11.90;99.90;;;;;;5052415;28;19904;-76
2022/10/30 06:54:38;;;;;;;;;;;11.90;99.90;;;;;;5071031;28;20353;-76
2022/10/30 06:57:03;;;;;;;;;;;11.90;99.90;;;;;;5053742;28;19904;-76
2022/10/30 06:59:29;;;;;;;;;;;11.90;99.90;;;;;;5053406;28;19915;-76
2022/10/30 07:01:55;;;;;;;;;;;11.90;99.90;;;;;;5052768;28;20003;-76
2022/10/30 07:04:20;;;;;;;;;;;12.00;99.90;;;;;;5052993;28;19908;-77
2022/10/30 07:06:46;;;;;;;;;;;12.00;99.90;;;;;;5052594;28;19951;-76
2022/10/30 07:09:11;;;;;;;;;;;12.00;99.90;;;;;;5052540;28;19912;-76
2022/10/30 07:11:39;;;;;;;;;;;12.10;99.90;;;;;;5053408;28;19975;-76
2022/10/30 07:14:04;;;;;;;;;;;12.10;99.90;;;;;;5052978;28;19916;-76
2022/10/30 07:16:29;;;;;;;;;;;12.10;99.90;;;;;;5071239;28;20322;-77
2022/10/30 07:18:55;;;;;;;;;;;12.20;99.90;;;;;;5052860;28;19943;-75
2022/10/30 07:21:20;;;;;;;;;;;12.20;99.90;;;;;;5053212;28;19916;-76
2022/10/30 07:23:46;;;;;;;;;;;12.30;99.90;;;;;;5071063;28;19908;-76
2022/10/30 07:26:11;;;;;;;;;;;12.30;99.90;;;;;;5053064;28;19969;-77
2022/10/30 07:28:37;;;;;;;;;;;12.40;99.90;;;;;;5052735;28;19951;-79
2022/10/30 07:31:02;;;;;;;;;;;12.40;99.90;;;;;;5052627;28;20297;-76
2022/10/30 07:33:28;;;;;;;;;;;12.50;99.90;;;;;;5070153;28;20003;-76
2022/10/30 07:35:53;;;;;;;;;;;12.50;99.90;;;;;;5055574;28;20011;-76
2022/10/30 07:38:19;;;;;;;;;;;12.60;99.90;;;;;;5056983;28;19904;-76
2022/10/30 07:40:50;;;;;;;;;;;12.60;99.90;;;;;;5056440;28;19920;-75
2022/10/30 07:43:15;;;;;;;;;;;12.70;99.90;;;;;;5074990;28;19920;-76
2022/10/30 07:45:43;;;;;;;;;;;12.80;99.90;;;;;;5057047;28;19904;-76
2022/10/30 07:48:09;;;;;;;;;;;12.70;99.90;;;;;;5056316;28;19915;-76
2022/10/30 07:50:34;;;;;;;;;;;12.80;99.90;;;;;;5056660;28;19908;-76
2022/10/30 07:53:00;;;;;;;;;;;12.80;99.90;;;;;;5074762;28;20408;-76
2022/10/30 07:55:25;;;;;;;;;;;12.80;99.90;;;;;;5055374;28;19914;-76
2022/10/30 07:57:50;;;;;;;;;;;12.80;99.90;;;;;;5055751;28;19916;-76
2022/10/30 08:00:16;;;;;;;;;;;12.80;99.90;;;;;;5073815;28;19935;-77
2022/10/30 08:02:42;;;;;;;;;;;12.80;99.90;;;;;;5055348;28;19912;-76
2022/10/30 08:05:07;;;;;;;;;;;12.80;99.90;;;;;;5055530;28;19908;-76
2022/10/30 08:07:34;;;;;;;;;;;12.80;99.90;;;;;;5073398;28;20000;-77
2022/10/30 08:10:00;;;;;;;;;;;12.80;99.90;;;;;;5055391;28;20384;-76
2022/10/30 08:12:26;;;;;;;;;;;12.80;99.90;;;;;;5055194;28;19982;-76
2022/10/30 08:14:52;;;;;;;;;;;12.80;99.90;;;;;;5055252;28;19957;-76
2022/10/30 08:17:17;;;;;;;;;;;12.80;99.90;;;;;;5055588;28;19908;-76
2022/10/30 08:19:43;;;;;;;;;;;12.80;99.90;;;;;;5055849;28;19915;-76
2022/10/30 08:22:12;;;;;;;;;;;12.80;99.90;;;;;;5073469;28;20569;-76
2022/10/30 08:24:37;;;;;;;;;;;12.80;99.90;;;;;;5055242;28;19908;-76
2022/10/30 08:27:03;;;;;;;;;;;12.80;99.90;;;;;;5073882;28;19904;-76
2022/10/30 08:29:29;;;;;;;;;;;12.70;99.90;;;;;;5073292;28;19908;-76
2022/10/30 08:31:54;;;;;;;;;;;12.70;99.90;;;;;;5073385;28;19962;-76
2022/10/30 08:34:20;;;;;;;;;;;12.70;99.90;;;;;;5055195;28;20328;-76
2022/10/30 08:36:52;;;;;;;;;;;12.70;99.90;;;;;;5073078;28;19944;-76
2022/10/30 08:39:17;;;;;;;;;;;12.70;99.90;;;;;;5054909;28;20445;-77
2022/10/30 08:41:43;;;;;;;;;;;12.70;99.90;;;;;;5072923;28;20038;-76
2022/10/30 08:44:09;;;;;;;;;;;12.80;99.90;;;;;;5055486;28;19983;-76
2022/10/30 08:46:35;;;;;;;;;;;12.80;99.90;;;;;;5071455;28;19991;-76
2022/10/30 08:49:00;;;;;;;;;;;12.80;99.90;;;;;;5054585;28;20428;-76
2022/10/30 08:51:26;;;;;;;;;;;12.80;99.90;;;;;;5072967;28;19934;-77
2022/10/30 08:53:51;;;;;;;;;;;12.80;99.90;;;;;;5073048;28;19908;-76
2022/10/30 08:56:17;;;;;;;;;;;12.80;99.90;;;;;;5072436;28;20011;-77
2022/10/30 08:58:42;;;;;;;;;;;12.90;99.90;;;;;;5054534;28;19908;-76
2022/10/30 09:01:08;;;;;;;;;;;12.90;99.90;;;;;;5054445;28;20007;-76
2022/10/30 09:03:33;;;;;;;;;;;12.90;99.90;;;;;;5054630;28;19911;-76
2022/10/30 09:06:00;;;;;;;;;;;12.90;99.90;;;;;;5072562;28;20426;-76
2022/10/30 09:08:26;;;;;;;;;;;13.00;99.90;;;;;;5072542;28;20030;-76
2022/10/30 09:10:55;;;;;;;;;;;13.00;99.90;;;;;;5054631;28;20344;-76
2022/10/30 09:13:20;;;;;;;;;;;13.10;99.90;;;;;;5054414;28;19920;-76
2022/10/30 09:15:46;;;;;;;;;;;13.10;99.90;;;;;;5072746;28;20254;-76
2022/10/30 09:18:11;;;;;;;;;;;13.10;99.90;;;;;;5054362;28;19991;-76
2022/10/30 09:20:37;;;;;;;;;;;13.10;99.90;;;;;;5072168;28;19916;-76
2022/10/30 09:23:03;;;;;;;;;;;13.00;99.90;;;;;;5054389;28;20369;-75
2022/10/30 09:25:28;;;;;;;;;;;13.20;99.90;;;;;;5054419;28;20013;-76
2022/10/30 09:27:54;;;;;;;;;;;13.20;99.90;;;;;;5072005;28;20392;-76
2022/10/30 09:30:19;;;;;;;;;;;13.20;99.90;;;;;;5071729;28;19931;-76
2022/10/30 09:32:45;;;;;;;;;;;13.20;99.90;;;;;;5071926;28;19912;-76
2022/10/30 09:35:10;;;;;;;;;;;13.20;99.90;;;;;;5072097;28;19909;-76
2022/10/30 09:37:36;;;;;;;;;;;13.20;99.90;;;;;;5054130;28;19994;-76
2022/10/30 09:40:03;;;;;;;;;;;13.00;99.90;;;;;;5053932;28;20373;-76
2022/10/30 09:42:42;;;;;;;;;;;13.00;99.90;;;;;;5071924;28;19919;-76
2022/10/30 09:45:16;;;;;;;;;;;13.10;99.90;;;;;;5072015;28;20439;-76
2022/10/30 09:47:51;;;;;;;;;;;13.10;99.90;;;;;;5072058;28;20498;-76
2022/10/30 09:50:22;;;;;;;;;;;13.20;99.90;;;;;;5054257;28;19927;-75
2022/10/30 09:53:07;;;;;;;;;;;13.20;99.90;;;;;;5071634;28;19947;-75
2022/10/30 09:55:46;;;;;;;;;;;13.30;99.90;;;;;;5071883;28;20395;-76
2022/10/30 09:58:30;;;;;;;;;;;13.30;99.90;;;;;;5071448;28;19905;-76
2022/10/30 10:01:04;;;;;;;;;;;13.30;99.90;;;;;;5053474;28;20007;-76
2022/10/30 10:03:49;;;;;;;;;;;13.30;99.90;;;;;;5053815;28;19935;-76
2022/10/30 10:06:17;;;;;;;;;;;13.30;99.90;;;;;;5071944;28;19977;-76
2022/10/30 10:08:45;;;;;;;;;;;13.30;99.90;;;;;;5072327;28;19916;-76
2022/10/30 10:11:19;;;;;;;;;;;13.30;99.90;;;;;;5072389;28;19912;-75
2022/10/30 10:13:51;;;;;;;;;;;13.30;99.90;;;;;;5070755;28;19921;-75
2022/10/30 10:16:19;;;;;;;;;;;13.30;99.90;;;;;;5052797;28;20395;-76
2022/10/30 10:18:50;;;;;;;;;;;13.40;99.90;;;;;;5071203;28;19915;-76
2022/10/30 10:21:21;;;;;;;;;;;13.40;99.90;;;;;;5052899;28;20047;-76
2022/10/30 10:23:48;;;;;;;;;;;13.40;99.90;;;;;;5071015;28;19995;-76
2022/10/30 10:26:21;;;;;;;;;;;13.50;99.90;;;;;;5071057;28;19909;-76
2022/10/30 10:28:46;;;;;;;;;;;13.50;99.90;;;;;;5052836;28;20006;-75
2022/10/30 10:31:26;;;;;;;;;;;13.50;99.90;;;;;;5070747;28;20443;-75
2022/10/30 10:34:15;;;;;;;;;;;13.50;99.90;;;;;;5052919;28;19908;-75
2022/10/30 10:37:06;;;;;;;;;;;13.40;99.90;;;;;;5006660;28;20007;-76
2022/10/30 10:39:38;;;;;;;;;;;13.40;99.90;;;;;;5065627;28;20651;-75
2022/10/30 10:42:22;;;;;;;;;;;13.40;99.90;;;;;;5052458;28;19920;-76
2022/10/30 10:44:50;;;;;;;;;;;13.50;99.90;;;;;;5070227;28;19911;-75
2022/10/30 10:47:16;;;;;;;;;;;13.50;99.90;;;;;;5052849;28;19915;-76
2022/10/30 10:50:05;;;;;;;;;;;13.60;99.90;;;;;;5070496;28;19904;-76
2022/10/30 10:52:38;;;;;;;;;;;13.60;99.90;;;;;;5051707;28;20297;-75
2022/10/30 10:55:05;;;;;;;;;;;13.50;99.90;;;;;;5052521;28;20265;-76
2022/10/30 10:57:35;;;;;;;;;;;13.40;99.90;;;;;;5070462;28;19915;-76
2022/10/30 11:00:04;;;;;;;;;;;13.40;99.90;;;;;;5052170;28;19908;-76
2022/10/30 11:02:32;;;;;;;;;;;13.40;99.90;;;;;;5052863;28;19913;-75
2022/10/30 11:05:05;;;;;;;;;;;13.40;99.90;;;;;;5052508;28;19912;-75
2022/10/30 11:07:32;;;;;;;;;;;13.40;99.90;;;;;;5047339;28;19908;-76
2022/10/30 11:09:58;;;;;;;;;;;13.40;99.90;;;;;;5051506;28;19912;-76
2022/10/30 11:12:25;;;;;;;;;;;13.40;99.90;;;;;;5070499;28;20292;-76
2022/10/30 11:14:51;;;;;;;;;;;13.50;99.90;;;;;;5070135;28;19910;-76
2022/10/30 11:17:28;;;;;;;;;;;13.50;99.90;;;;;;5052606;28;19908;-76
2022/10/30 11:19:57;;;;;;;;;;;13.50;99.90;;;;;;5070127;28;20319;-75
2022/10/30 11:22:36;;;;;;;;;;;13.50;99.90;;;;;;5052152;28;19912;-76
2022/10/30 11:25:21;;;;;;;;;;;13.50;99.90;;;;;;5070090;28;20021;-76
2022/10/30 11:27:48;;;;;;;;;;;13.60;99.90;;;;;;5070060;28;19915;-76
2022/10/30 11:30:20;;;;;;;;;;;13.60;99.90;;;;;;5070011;28;19904;-76
2022/10/30 11:32:46;;;;;;;;;;;13.60;99.90;;;;;;5069869;28;19905;-76
2022/10/30 11:35:13;;;;;;;;;;;13.70;99.90;;;;;;5052423;28;19904;-76
2022/10/30 11:37:40;;;;;;;;;;;13.70;99.90;;;;;;5051888;28;19915;-76
2022/10/30 11:40:06;;;;;;;;;;;13.80;99.90;;;;;;5051731;28;20277;-76
2022/10/30 11:42:31;;;;;;;;;;;13.80;99.90;;;;;;5069967;28;19911;-76
2022/10/30 11:44:57;;;;;;;;;;;13.80;99.90;;;;;;5051707;28;19911;-76
2022/10/30 11:47:30;;;;;;;;;;;13.90;99.90;;;;;;5069967;28;20084;-76
2022/10/30 11:49:58;;;;;;;;;;;13.90;99.90;;;;;;5069518;28;19908;-76
2022/10/30 11:52:24;;;;;;;;;;;14.00;99.90;;;;;;5052255;28;19915;-76
2022/10/30 11:54:52;;;;;;;;;;;14.00;99.90;;;;;;5051690;28;19915;-76
2022/10/30 11:57:20;;;;;;;;;;;14.00;99.90;;;;;;5069675;28;19993;-75
2022/10/30 11:59:46;;;;;;;;;;;14.10;99.90;;;;;;5069975;28;19912;-76
2022/10/30 12:02:19;;;;;;;;;;;14.10;99.90;;;;;;5051606;28;19917;-76
2022/10/30 12:04:45;;;;;;;;;;;14.10;99.90;;;;;;5070057;28;19915;-75
2022/10/30 12:07:22;;;;;;;;;;;14.20;99.90;;;;;;5051629;28;19904;-76
2022/10/30 12:09:48;;;;;;;;;;;14.10;99.90;;;;;;5051829;28;19908;-76
2022/10/30 12:12:33;;;;;;;;;;;14.10;99.90;;;;;;5052304;28;19909;-76
2022/10/30 12:15:21;;;;;;;;;;;14.10;99.90;;;;;;5051559;28;19962;-76
2022/10/30 12:17:54;;;;;;;;;;;14.00;99.90;;;;;;5038730;28;19912;-76
2022/10/30 12:20:20;;;;;;;;;;;14.00;99.90;;;;;;5070310;28;20399;-76
2022/10/30 12:22:46;;;;;;;;;;;13.90;99.90;;;;;;5073763;28;19962;-75
2022/10/30 12:25:27;;;;;;;;;;;13.90;99.90;;;;;;5056108;28;20204;-76
2022/10/30 12:28:12;;;;;;;;;;;13.90;99.90;;;;;;5055869;28;20377;-76
2022/10/30 12:30:44;;;;;;;;;;;14.00;99.90;;;;;;5055335;28;19943;-75
2022/10/30 12:33:19;;;;;;;;;;;14.00;99.90;;;;;;5055288;28;19908;-75
2022/10/30 12:35:53;;;;;;;;;;;14.00;99.90;;;;;;5054981;28;20006;-76
2022/10/30 12:38:32;;;;;;;;;;;14.10;99.90;;;;;;5054952;28;19912;-76
2022/10/30 12:41:06;;;;;;;;;;;14.10;99.90;;;;;;5054805;28;19916;-75
2022/10/30 12:43:34;;;;;;;;;;;14.10;99.90;;;;;;5054903;28;19912;-76
2022/10/30 12:46:20;;;;;;;;;;;14.10;99.90;;;;;;5072704;28;19951;-76
2022/10/30 12:48:52;;;;;;;;;;;14.10;99.90;;;;;;5071941;28;19916;-76
2022/10/30 12:51:40;;;;;;;;;;;14.10;99.90;;;;;;5067901;28;19916;-75
2022/10/30 12:54:14;;;;;;;;;;;14.10;99.90;;;;;;5072324;28;19935;-75
2022/10/30 12:56:42;;;;;;;;;;;14.10;99.90;;;;;;5071936;28;19912;-76
2022/10/30 12:59:19;;;;;;;;;;;14.10;99.90;;;;;;5054403;28;19995;-75
2022/10/30 13:01:48;;;;;;;;;;;14.10;99.90;;;;;;5072465;28;19912;-75
2022/10/30 13:04:19;;;;;;;;;;;14.10;99.90;;;;;;5054556;28;19915;-76
2022/10/30 13:06:50;;;;;;;;;;;14.10;99.90;;;;;;5054522;28;19915;-75
2022/10/30 13:09:37;;;;;;;;;;;14.00;99.90;;;;;;5054194;28;19915;-76
2022/10/30 13:12:02;;;;;;;;;;;14.00;99.90;;;;;;5072136;28;20384;-75
2022/10/30 13:14:34;;;;;;;;;;;14.00;99.90;;;;;;5054375;28;19916;-75
2022/10/30 13:16:59;;;;;;;;;;;13.90;99.90;;;;;;5072431;28;20379;-76
2022/10/30 13:19:26;;;;;;;;;;;13.90;99.90;;;;;;5054098;28;19912;-75
2022/10/30 13:22:05;;;;;;;;;;;13.90;99.90;;;;;;5071983;28;19920;-76
2022/10/30 13:24:42;;;;;;;;;;;13.90;99.90;;;;;;5053947;28;19904;-76
2022/10/30 13:27:30;;;;;;;;;;;13.90;99.90;;;;;;5053970;28;19995;-75
2022/10/30 13:30:00;;;;;;;;;;;14.00;99.90;;;;;;5054013;28;20338;-76
2022/10/30 13:32:26;;;;;;;;;;;14.00;99.90;;;;;;5071213;28;19904;-76
2022/10/30 13:35:02;;;;;;;;;;;13.90;99.90;;;;;;5071838;28;20539;-75
2022/10/30 13:38:03;;;;;;;;;;;13.90;99.90;;;;;;5072103;28;19904;-76
2022/10/30 13:40:31;;;;;;;;;;;14.00;99.90;;;;;;4970513;28;19914;-75
2022/10/30 13:42:56;;;;;;;;;;;13.90;99.90;;;;;;5034710;28;19905;-75
2022/10/30 13:45:25;;;;;;;;;;;13.90;99.90;;;;;;5053666;28;19950;-75
2022/10/30 13:48:10;;;;;;;;;;;13.90;99.90;;;;;;5053172;28;20417;-75
2022/10/30 13:50:46;;;;;;;;;;;13.80;99.90;;;;;;5071064;28;19919;-75
2022/10/30 13:53:13;;;;;;;;;;;13.80;99.90;;;;;;5071163;28;19908;-76
2022/10/30 13:55:40;;;;;;;;;;;13.80;99.90;;;;;;5071471;28;19908;-75
2022/10/30 13:58:05;;;;;;;;;;;13.80;99.90;;;;;;5071285;28;19912;-76
2022/10/30 14:00:53;;;;;;;;;;;13.80;99.90;;;;;;5053449;28;19917;-76
2022/10/30 14:03:19;;;;;;;;;;;13.80;99.90;;;;;;5071271;28;19916;-75
2022/10/30 14:05:52;;;;;;;;;;;13.70;99.90;;;;;;5053433;28;20050;-75
2022/10/30 14:08:33;;;;;;;;;;;13.70;99.90;;;;;;5053483;28;19947;-75
2022/10/30 14:10:59;;;;;;;;;;;13.70;99.90;;;;;;5053345;28;19908;-75
2022/10/30 14:13:34;;;;;;;;;;;13.70;99.90;;;;;;5052639;28;19916;-76
2022/10/30 14:16:00;;;;;;;;;;;13.70;99.90;;;;;;5071343;28;19908;-76
2022/10/30 14:18:27;;;;;;;;;;;13.60;99.90;;;;;;5071375;28;19920;-75
2022/10/30 14:20:54;;;;;;;;;;;13.60;99.90;;;;;;5053154;28;19916;-75
2022/10/30 14:23:24;;;;;;;;;;;13.60;99.90;;;;;;5071393;28;19916;-75